Bradgate, Iowa
Current Conditions -  °F | °C
As of 3:35 PM on Friday 28 Nov 2014 (Local Time) from KFOD Reporting Station
Clear Clear  
Wind Chill: 21°   Ceiling: Unl
Heat Index: 30°   Visibility: 10mi
Dew Point: 23°   Wind: 12mph
Humidity: 75%   Direction: 120°ESE
Pressure: 29.77"   Gusts: NA
Location:  42.8°N, 94.42°W
Report Text: KFOD 282135Z AUTO 12010KT 10SM CLR M01/M05 A2977 RMK AO1
Loading
Personal Weather Stations






























Interactive Weather Map New forecast layout! Learn more

10-Day Weather Forecast

Advertisements
Track Severe Weather on mobile